Time;durP1;ratioP1;P1;durP2;ratioP2;P2;SDS_P1;SDS_P2;PMS_P1;PMS_P2;Temp;Humidity;BMP_temperature;BMP_pressure;BME280_temperature;BME280_humidity;BME280_pressure;Samples;Min_cycle;Max_cycle;Signal;HPM_P1;HPM_P2
2023/06/24 00:00:03;;;;;;;6.97;4.50;;;20.20;60.80;;;;;;4965569;28;20811;-80
2023/06/24 00:02:35;;;;;;;6.80;4.07;;;20.20;60.70;;;;;;4977251;28;20469;-80
2023/06/24 00:05:04;;;;;;;6.82;4.28;;;20.10;60.70;;;;;;4944503;28;20271;-80
2023/06/24 00:07:31;;;;;;;6.88;4.10;;;20.10;60.70;;;;;;4944796;28;20052;-80
2023/06/24 00:09:58;;;;;;;7.90;4.20;;;20.00;60.80;;;;;;4938682;28;20052;-81
2023/06/24 00:12:26;;;;;;;6.15;4.38;;;20.00;61.00;;;;;;4950094;28;20126;-80
2023/06/24 00:14:55;;;;;;;7.10;4.00;;;20.00;61.20;;;;;;4933127;28;20055;-80
2023/06/24 00:17:22;;;;;;;6.43;4.00;;;20.00;61.20;;;;;;4948677;28;20272;-80
2023/06/24 00:19:49;;;;;;;6.53;4.20;;;19.90;61.10;;;;;;4948847;28;20142;-80
2023/06/24 00:22:16;;;;;;;7.32;4.43;;;19.90;61.10;;;;;;4948177;28;20066;-80
2023/06/24 00:24:43;;;;;;;6.60;4.00;;;19.80;61.10;;;;;;4951021;28;20066;-80
2023/06/24 00:27:09;;;;;;;6.50;4.03;;;19.80;61.30;;;;;;4943810;28;20064;-80
2023/06/24 00:29:36;;;;;;;6.38;3.90;;;19.70;61.60;;;;;;4928139;28;20882;-80
2023/06/24 00:32:05;;;;;;;6.90;4.10;;;19.70;61.80;;;;;;4940578;28;20055;-80
2023/06/24 00:34:32;;;;;;;6.88;4.40;;;19.70;61.90;;;;;;4929327;29;20574;-80
2023/06/24 00:36:59;;;;;;;7.72;4.45;;;19.60;61.90;;;;;;4927164;28;20566;-80
2023/06/24 00:39:27;;;;;;;6.67;4.30;;;19.50;62.00;;;;;;4946557;28;20047;-80
2023/06/24 00:41:54;;;;;;;6.60;4.35;;;19.50;62.00;;;;;;4947607;28;20278;-80
2023/06/24 00:44:22;;;;;;;8.07;4.45;;;19.50;62.00;;;;;;4932081;28;20704;-80
2023/06/24 00:46:49;;;;;;;7.55;4.63;;;19.40;62.10;;;;;;4932241;28;20147;-80
2023/06/24 00:49:18;;;;;;;7.47;4.40;;;19.40;62.20;;;;;;4945987;28;20087;-80
2023/06/24 00:51:47;;;;;;;7.67;4.77;;;19.30;62.40;;;;;;4947486;28;20047;-80
2023/06/24 00:54:14;;;;;;;9.18;4.85;;;19.30;62.50;;;;;;4941649;28;20268;-80
2023/06/24 00:56:42;;;;;;;7.25;4.90;;;19.20;62.50;;;;;;4927142;29;20118;-80
2023/06/24 00:59:11;;;;;;;7.97;5.05;;;19.20;62.50;;;;;;4916428;29;20131;-80
2023/06/24 01:01:39;;;;;;;8.25;4.93;;;19.10;62.60;;;;;;4926864;28;20501;-80
2023/06/24 01:04:09;;;;;;;7.33;4.90;;;19.10;62.60;;;;;;4951066;28;20058;-80
2023/06/24 01:06:43;;;;;;;7.82;4.82;;;19.10;62.50;;;;;;4949055;28;20288;-80
2023/06/24 01:09:10;;;;;;;8.18;5.03;;;19.00;62.50;;;;;;4945382;28;20064;-80
2023/06/24 01:11:37;;;;;;;7.53;4.88;;;19.00;62.60;;;;;;4934649;28;20062;-80
2023/06/24 01:14:05;;;;;;;8.18;4.85;;;19.00;62.60;;;;;;4920968;28;20077;-80
2023/06/24 01:16:39;;;;;;;9.10;5.47;;;18.90;62.70;;;;;;4929426;29;20048;-80
2023/06/24 01:19:27;;;;;;;8.88;5.20;;;18.90;62.80;;;;;;4925222;28;20359;-80
2023/06/24 01:22:11;;;;;;;9.18;5.15;;;18.90;62.60;;;;;;4951911;28;20059;-80
2023/06/24 01:24:58;;;;;;;8.63;4.97;;;18.90;62.60;;;;;;4950759;28;20060;-80
2023/06/24 01:27:44;;;;;;;8.00;5.47;;;18.80;62.60;;;;;;4950189;28;20058;-80
2023/06/24 01:30:42;;;;;;;9.93;5.70;;;18.80;62.60;;;;;;4950205;28;20051;-80
2023/06/24 01:33:13;;;;;;;8.45;4.80;;;18.80;62.60;;;;;;4919183;28;20413;-80
2023/06/24 01:35:42;;;;;;;8.82;5.28;;;18.70;62.80;;;;;;4950677;28;20218;-80
2023/06/24 01:38:16;;;;;;;9.07;5.15;;;18.70;62.90;;;;;;4949087;28;20130;-80
2023/06/24 01:40:46;;;;;;;8.13;4.95;;;18.70;63.00;;;;;;4944409;28;20048;-80
2023/06/24 01:43:16;;;;;;;7.90;5.03;;;18.60;63.20;;;;;;4926331;28;20551;-80
2023/06/24 01:45:48;;;;;;;8.25;5.13;;;18.60;63.40;;;;;;4931130;29;20256;-80
2023/06/24 01:48:20;;;;;;;7.65;4.82;;;18.60;63.60;;;;;;4947278;28;20119;-80
2023/06/24 01:50:58;;;;;;;10.70;5.07;;;18.50;63.70;;;;;;4944524;28;20048;-80
2023/06/24 01:53:27;;;;;;;8.93;5.25;;;18.50;63.80;;;;;;4944554;28;20048;-80
2023/06/24 01:55:55;;;;;;;7.17;4.70;;;18.50;63.70;;;;;;4944805;28;20063;-80
2023/06/24 01:58:24;;;;;;;7.65;4.85;;;18.50;63.80;;;;;;4933619;28;20320;-80
2023/06/24 02:00:52;;;;;;;8.88;5.32;;;18.40;63.80;;;;;;4962991;28;20510;-80
2023/06/24 02:03:22;;;;;;;8.63;5.63;;;18.40;63.90;;;;;;4948706;28;20128;-80
2023/06/24 02:05:51;;;;;;;7.95;4.85;;;18.40;64.00;;;;;;4950015;28;20616;-80
2023/06/24 02:08:21;;;;;;;8.00;4.93;;;18.30;64.00;;;;;;4961461;28;20051;-80
2023/06/24 02:10:50;;;;;;;8.75;4.60;;;18.30;64.00;;;;;;4945554;28;20260;-80
2023/06/24 02:13:18;;;;;;;7.80;5.45;;;18.30;63.90;;;;;;4960400;28;20517;-80
2023/06/24 02:15:47;;;;;;;9.50;5.35;;;18.30;64.00;;;;;;4949254;28;20079;-80
2023/06/24 02:18:17;;;;;;;10.10;5.50;;;18.20;64.10;;;;;;4949569;28;20070;-80
2023/06/24 02:20:47;;;;;;;9.53;5.77;;;18.20;64.10;;;;;;4949796;28;20131;-80
2023/06/24 02:23:15;;;;;;;6.85;4.68;;;18.20;64.40;;;;;;4932446;28;20272;-80
2023/06/24 02:25:43;;;;;;;8.30;5.10;;;18.20;64.20;;;;;;4941337;28;20237;-80
2023/06/24 02:28:11;;;;;;;9.52;4.90;;;18.10;64.40;;;;;;4928041;28;20067;-80
2023/06/24 02:30:39;;;;;;;8.50;5.05;;;18.10;64.60;;;;;;4927284;28;21452;-80
2023/06/24 02:33:07;;;;;;;7.83;5.10;;;18.10;64.80;;;;;;4948114;28;20047;-80
2023/06/24 02:35:34;;;;;;;9.82;5.60;;;18.00;65.00;;;;;;4949587;28;20327;-80
2023/06/24 02:38:03;;;;;;;9.68;5.28;;;18.00;65.20;;;;;;4949205;28;20119;-80
2023/06/24 02:40:32;;;;;;;8.40;5.35;;;18.00;65.50;;;;;;4943657;28;20048;-80
2023/06/24 02:43:00;;;;;;;8.95;5.47;;;18.00;65.30;;;;;;4913214;29;20138;-80
2023/06/24 02:45:27;;;;;;;8.57;5.23;;;18.00;65.30;;;;;;4931061;28;20044;-80
2023/06/24 02:47:55;;;;;;;9.25;5.95;;;17.90;65.30;;;;;;4949440;28;20272;-80
2023/06/24 02:50:24;;;;;;;9.55;5.65;;;17.90;65.40;;;;;;4949254;28;20052;-80
2023/06/24 02:52:53;;;;;;;10.10;6.03;;;17.80;65.30;;;;;;4932376;28;20044;-80
2023/06/24 02:55:24;;;;;;;9.15;5.70;;;17.80;65.40;;;;;;4929394;29;20056;-80
2023/06/24 02:57:56;;;;;;;10.17;5.67;;;17.80;65.60;;;;;;4961806;28;20146;-80
2023/06/24 03:00:53;;;;;;;9.40;5.80;;;17.80;65.40;;;;;;4930558;28;20304;-80
2023/06/24 03:03:33;;;;;;;11.02;5.75;;;17.80;65.60;;;;;;4946552;28;20130;-80
2023/06/24 03:06:02;;;;;;;11.38;6.63;;;17.70;65.80;;;;;;4945452;28;20126;-80
2023/06/24 03:08:30;;;;;;;11.93;6.05;;;17.60;65.80;;;;;;4948795;28;20191;-80
2023/06/24 03:10:59;;;;;;;10.53;6.40;;;17.60;65.60;;;;;;4948696;28;20043;-80
2023/06/24 03:13:30;;;;;;;10.60;6.25;;;17.60;65.70;;;;;;4932073;28;20287;-80
2023/06/24 03:16:19;;;;;;;9.63;6.07;;;17.60;65.70;;;;;;4931411;28;20509;-80
2023/06/24 03:19:12;;;;;;;10.43;6.22;;;17.50;65.60;;;;;;4942664;28;20063;-80
2023/06/24 03:21:39;;;;;;;10.68;6.95;;;17.50;65.70;;;;;;4958318;28;20087;-80
2023/06/24 03:24:17;;;;;;;10.80;6.80;;;17.50;66.00;;;;;;4928731;28;20541;-80
2023/06/24 03:26:50;;;;;;;11.55;6.32;;;17.50;66.20;;;;;;4948466;28;20859;-80
2023/06/24 03:29:18;;;;;;;10.20;6.13;;;17.50;66.40;;;;;;4929310;29;20052;-80
2023/06/24 03:31:55;;;;;;;10.90;7.00;;;17.50;66.40;;;;;;4930824;28;20059;-80
2023/06/24 03:34:26;;;;;;;11.23;6.97;;;17.40;66.30;;;;;;4927593;29;20056;-80
2023/06/24 03:36:54;;;;;;;12.60;7.30;;;17.40;66.50;;;;;;4931563;28;20092;-80
2023/06/24 03:39:22;;;;;;;13.02;7.80;;;17.40;66.40;;;;;;4923194;29;20276;-80
2023/06/24 03:41:51;;;;;;;13.20;7.50;;;17.40;66.30;;;;;;4932446;28;20130;-80
2023/06/24 03:44:18;;;;;;;15.02;8.07;;;17.40;66.20;;;;;;4948548;28;20075;-80
2023/06/24 03:46:46;;;;;;;10.55;6.75;;;17.40;66.20;;;;;;4948617;28;20055;-80
2023/06/24 03:49:13;;;;;;;13.13;7.60;;;17.40;66.20;;;;;;4948756;28;20538;-80
2023/06/24 03:51:41;;;;;;;11.80;7.85;;;17.30;66.40;;;;;;4946490;28;20634;-80
2023/06/24 03:54:09;;;;;;;12.43;7.40;;;17.30;66.60;;;;;;4927164;28;20483;-80
2023/06/24 03:56:36;;;;;;;11.98;7.80;;;17.30;66.40;;;;;;4948317;28;20056;-80
2023/06/24 03:59:05;;;;;;;12.65;7.72;;;17.20;66.80;;;;;;4947822;28;20515;-80
2023/06/24 04:01:32;;;;;;;13.43;7.47;;;17.20;66.90;;;;;;4946988;28;20053;-80
2023/06/24 04:03:59;;;;;;;13.68;7.72;;;17.20;67.20;;;;;;4943561;28;20335;-80
2023/06/24 04:06:26;;;;;;;10.57;6.95;;;17.20;67.20;;;;;;4929669;28;20135;-80
2023/06/24 04:08:54;;;;;;;11.93;7.25;;;17.20;67.10;;;;;;4948425;28;20056;-80
2023/06/24 04:11:22;;;;;;;13.57;7.00;;;17.20;67.20;;;;;;4944281;28;20540;-80
2023/06/24 04:13:49;;;;;;;12.97;7.80;;;17.20;67.20;;;;;;4922996;28;20080;-80
2023/06/24 04:16:18;;;;;;;12.13;7.07;;;17.20;67.50;;;;;;4960117;28;20357;-80
2023/06/24 04:18:45;;;;;;;12.65;7.97;;;17.20;67.50;;;;;;4931695;28;20259;-80
2023/06/24 04:21:12;;;;;;;12.30;7.35;;;17.20;67.80;;;;;;4961941;28;20059;-80
2023/06/24 04:23:39;;;;;;;13.07;8.15;;;17.20;68.00;;;;;;4962852;28;20521;-80
2023/06/24 04:26:05;;;;;;;12.93;7.80;;;17.20;67.90;;;;;;4947365;28;20103;-80
2023/06/24 04:28:32;;;;;;;12.18;7.40;;;17.20;67.60;;;;;;4949517;28;20326;-80
2023/06/24 04:31:01;;;;;;;12.00;7.50;;;17.20;67.70;;;;;;4949702;28;20044;-80
2023/06/24 04:33:29;;;;;;;12.73;7.82;;;17.20;67.60;;;;;;4951329;28;20594;-80
2023/06/24 04:35:57;;;;;;;12.65;7.40;;;17.20;67.80;;;;;;4950605;28;20134;-80
2023/06/24 04:38:23;;;;;;;12.83;8.07;;;17.20;67.60;;;;;;4928387;28;20674;-80
2023/06/24 04:40:50;;;;;;;13.98;8.02;;;17.20;67.60;;;;;;4934637;28;20335;-80
2023/06/24 04:43:17;;;;;;;13.27;8.65;;;17.20;67.80;;;;;;4949385;28;20047;-81
2023/06/24 04:45:44;;;;;;;14.68;9.35;;;17.20;68.40;;;;;;4951022;28;20048;-80
2023/06/24 04:48:11;;;;;;;13.98;9.00;;;17.20;68.80;;;;;;4942696;28;20075;-80
2023/06/24 04:50:40;;;;;;;14.80;9.10;;;17.20;69.10;;;;;;4951101;28;20054;-81
2023/06/24 04:53:07;;;;;;;13.48;8.30;;;17.20;69.60;;;;;;4950984;28;20714;-80
2023/06/24 04:55:34;;;;;;;15.35;9.05;;;17.20;69.70;;;;;;4950669;28;20052;-80
2023/06/24 04:58:01;;;;;;;16.85;9.50;;;17.20;70.10;;;;;;4946175;28;20509;-80
2023/06/24 05:00:28;;;;;;;16.63;9.25;;;17.20;70.00;;;;;;4945342;28;20180;-81
2023/06/24 05:02:55;;;;;;;15.83;9.03;;;17.20;70.10;;;;;;4935089;28;20106;-80
2023/06/24 05:05:22;;;;;;;16.38;9.82;;;17.20;70.50;;;;;;4950639;28;20256;-80
2023/06/24 05:07:50;;;;;;;17.48;9.68;;;17.20;70.70;;;;;;4953266;28;20075;-80
2023/06/24 05:10:17;;;;;;;15.43;9.43;;;17.20;71.00;;;;;;4967514;28;20139;-80
2023/06/24 05:12:44;;;;;;;15.30;9.68;;;17.20;70.80;;;;;;4951040;28;20079;-81
2023/06/24 05:15:11;;;;;;;16.23;10.30;;;17.30;71.10;;;;;;4942581;28;20060;-80
2023/06/24 05:17:40;;;;;;;15.05;9.75;;;17.30;71.30;;;;;;4938033;28;20264;-80
2023/06/24 05:20:08;;;;;;;15.80;9.82;;;17.40;71.50;;;;;;4932139;28;20071;-80
2023/06/24 05:22:36;;;;;;;15.20;9.90;;;17.40;71.50;;;;;;4953000;28;20128;-80
2023/06/24 05:25:05;;;;;;;16.30;10.32;;;17.40;71.60;;;;;;4946274;28;20056;-80
2023/06/24 05:27:32;;;;;;;16.27;9.77;;;17.50;71.80;;;;;;4950674;28;20059;-80
2023/06/24 05:29:59;;;;;;;15.82;10.15;;;17.50;71.90;;;;;;4941967;28;20866;-81
2023/06/24 05:32:26;;;;;;;16.15;9.70;;;17.50;72.20;;;;;;4931688;29;20438;-80
2023/06/24 05:34:54;;;;;;;15.63;10.18;;;17.50;72.20;;;;;;4931193;28;20063;-81
2023/06/24 05:37:21;;;;;;;18.33;10.32;;;17.60;72.30;;;;;;4951888;28;20059;-80
2023/06/24 05:39:48;;;;;;;15.83;10.20;;;17.60;72.50;;;;;;4943656;28;20063;-80
2023/06/24 05:42:16;;;;;;;18.15;10.65;;;17.60;72.50;;;;;;4949476;28;20683;-79
2023/06/24 05:44:43;;;;;;;18.38;10.43;;;17.70;72.60;;;;;;4944152;28;20083;-85
2023/06/24 05:47:11;;;;;;;15.40;10.45;;;17.80;72.70;;;;;;4949286;28;20051;-85
2023/06/24 05:49:38;;;;;;;16.23;10.38;;;17.80;72.70;;;;;;4932588;28;21128;-84
2023/06/24 05:52:06;;;;;;;20.70;10.90;;;17.80;72.90;;;;;;4953625;28;20051;-85
2023/06/24 05:54:32;;;;;;;14.27;9.10;;;17.90;73.00;;;;;;4946157;28;20286;-85
2023/06/24 05:56:59;;;;;;;17.13;10.73;;;18.00;73.00;;;;;;4931831;28;20056;-86
2023/06/24 05:59:29;;;;;;;18.88;11.13;;;18.00;73.20;;;;;;4947734;28;20576;-85
2023/06/24 06:01:56;;;;;;;15.57;10.30;;;18.10;73.20;;;;;;4932482;28;20108;-85
2023/06/24 06:04:23;;;;;;;15.70;10.10;;;18.10;73.20;;;;;;4950038;28;20055;-85
2023/06/24 06:06:50;;;;;;;16.77;11.05;;;18.20;73.20;;;;;;4948407;28;20282;-85
2023/06/24 06:09:17;;;;;;;15.70;9.98;;;18.20;73.30;;;;;;4982829;28;20054;-85
2023/06/24 06:11:44;;;;;;;17.08;10.20;;;18.30;73.20;;;;;;4932813;28;20132;-84
2023/06/24 06:14:11;;;;;;;16.83;10.48;;;18.40;73.50;;;;;;4950171;28;20059;-85
2023/06/24 06:16:42;;;;;;;16.03;10.03;;;18.40;73.60;;;;;;4982885;28;20123;-85
2023/06/24 06:19:10;;;;;;;16.60;10.82;;;18.50;73.70;;;;;;4950699;28;20307;-84
2023/06/24 06:21:38;;;;;;;15.85;10.40;;;18.60;74.00;;;;;;4946420;28;20261;-83
2023/06/24 06:24:05;;;;;;;16.15;10.25;;;18.60;73.60;;;;;;4933946;28;20159;-85
2023/06/24 06:26:32;;;;;;;18.02;10.13;;;18.70;73.60;;;;;;4950065;28;20142;-85
2023/06/24 06:28:59;;;;;;;18.33;10.50;;;18.80;73.40;;;;;;4981752;28;20052;-84
2023/06/24 06:31:26;;;;;;;15.00;9.48;;;18.90;73.20;;;;;;4981447;28;20789;-85
2023/06/24 06:33:55;;;;;;;15.30;9.90;;;19.00;73.00;;;;;;4933935;28;20058;-85
2023/06/24 06:36:22;;;;;;;14.88;9.85;;;19.00;72.90;;;;;;4941173;28;20047;-85
2023/06/24 06:38:49;;;;;;;16.67;9.48;;;19.10;73.20;;;;;;4950206;28;20504;-84
2023/06/24 06:41:17;;;;;;;13.63;9.57;;;19.20;72.60;;;;;;4950071;28;20083;-85
2023/06/24 06:43:44;;;;;;;14.52;9.13;;;19.30;72.30;;;;;;4947389;28;20264;-85
2023/06/24 06:46:11;;;;;;;13.60;9.40;;;19.40;72.50;;;;;;4924802;28;20166;-85
2023/06/24 06:48:38;;;;;;;16.10;9.63;;;19.40;72.50;;;;;;4947557;28;20087;-85
2023/06/24 06:51:07;;;;;;;14.88;9.80;;;19.50;72.40;;;;;;4965131;28;20059;-84
2023/06/24 06:53:34;;;;;;;17.70;9.13;;;19.60;71.70;;;;;;4932140;28;20147;-84
2023/06/24 06:56:01;;;;;;;15.25;9.95;;;19.70;71.20;;;;;;4948785;28;20351;-84
2023/06/24 06:58:28;;;;;;;15.32;9.18;;;19.70;70.90;;;;;;4949446;28;20059;-85
2023/06/24 07:00:55;;;;;;;15.27;10.55;;;19.90;70.40;;;;;;4932321;28;20831;-86
2023/06/24 07:03:23;;;;;;;15.63;10.15;;;19.90;70.20;;;;;;4931623;28;20071;-85
2023/06/24 07:05:50;;;;;;;17.47;10.27;;;20.00;69.90;;;;;;4939826;28;20047;-85
2023/06/24 07:08:18;;;;;;;17.33;10.30;;;20.10;69.90;;;;;;4939807;28;20287;-83
2023/06/24 07:10:45;;;;;;;15.20;10.15;;;20.10;70.00;;;;;;4947513;28;20194;-84
2023/06/24 07:13:13;;;;;;;16.48;10.68;;;20.20;70.00;;;;;;4945542;28;20195;-84
2023/06/24 07:15:40;;;;;;;19.02;11.00;;;20.30;69.90;;;;;;4944534;28;20094;-85
2023/06/24 07:18:07;;;;;;;16.93;10.43;;;20.30;69.60;;;;;;4946708;28;20138;-85
2023/06/24 07:20:34;;;;;;;15.88;9.63;;;20.50;69.50;;;;;;4951885;28;20275;-84
2023/06/24 07:23:02;;;;;;;18.95;10.98;;;20.50;69.60;;;;;;4931171;28;20060;-84
2023/06/24 07:25:31;;;;;;;19.60;10.90;;;20.60;69.00;;;;;;4949545;28;20056;-84
2023/06/24 07:27:58;;;;;;;16.98;10.65;;;20.70;68.80;;;;;;4948889;28;20044;-84
2023/06/24 07:30:25;;;;;;;16.60;10.17;;;20.80;68.90;;;;;;4949032;28;20051;-85
2023/06/24 07:32:52;;;;;;;15.63;9.75;;;20.80;68.50;;;;;;4953937;28;20342;-85
2023/06/24 07:35:19;;;;;;;18.17;10.80;;;20.90;67.70;;;;;;4968931;28;20146;-85
2023/06/24 07:37:46;;;;;;;16.40;10.43;;;21.00;67.20;;;;;;4934996;28;20115;-83
2023/06/24 07:40:14;;;;;;;16.38;9.90;;;21.10;67.10;;;;;;4931542;28;20485;-85
2023/06/24 07:42:43;;;;;;;14.43;9.37;;;21.10;67.20;;;;;;4944831;28;20526;-85
2023/06/24 07:45:11;;;;;;;13.32;9.10;;;21.20;67.20;;;;;;4929550;28;20277;-85
2023/06/24 07:47:38;;;;;;;15.07;8.40;;;21.30;67.50;;;;;;4949242;28;20119;-85
2023/06/24 07:50:06;;;;;;;12.90;7.22;;;21.40;67.60;;;;;;4937328;28;20052;-84
2023/06/24 07:52:33;;;;;;;11.75;7.38;;;21.40;66.80;;;;;;4951755;28;20110;-85
2023/06/24 07:55:00;;;;;;;11.67;7.33;;;21.50;65.90;;;;;;4948792;28;20135;-87
2023/06/24 07:57:28;;;;;;;12.60;7.05;;;21.50;65.10;;;;;;4963740;28;20256;-85
2023/06/24 07:59:56;;;;;;;10.18;5.65;;;21.60;64.00;;;;;;4948581;28;20147;-81
2023/06/24 08:02:24;;;;;;;9.55;5.97;;;21.70;64.50;;;;;;4964082;28;20058;-86
2023/06/24 08:04:51;;;;;;;10.45;6.40;;;21.70;63.90;;;;;;4947849;28;20047;-86
2023/06/24 08:07:18;;;;;;;11.17;6.37;;;21.70;63.50;;;;;;4960640;28;20056;-85
2023/06/24 08:09:45;;;;;;;12.18;6.57;;;21.80;63.20;;;;;;4931575;28;20311;-86
2023/06/24 08:12:12;;;;;;;9.90;6.20;;;21.90;62.70;;;;;;4938187;28;20083;-85
2023/06/24 08:14:39;;;;;;;11.18;6.25;;;21.90;62.50;;;;;;4947979;28;20055;-84
2023/06/24 08:17:08;;;;;;;11.05;5.97;;;21.90;62.20;;;;;;4947447;28;20140;-84
2023/06/24 08:19:35;;;;;;;9.60;6.40;;;22.00;62.50;;;;;;4952548;28;20052;-84
2023/06/24 08:22:04;;;;;;;9.55;5.65;;;22.00;62.90;;;;;;4946914;28;20358;-84
2023/06/24 08:24:32;;;;;;;8.93;5.75;;;22.10;62.60;;;;;;4981314;28;20048;-85
2023/06/24 08:26:59;;;;;;;11.20;5.60;;;22.20;61.10;;;;;;4932202;28;20422;-85
2023/06/24 08:29:26;;;;;;;9.80;5.90;;;22.20;61.00;;;;;;4979967;28;20058;-85
2023/06/24 08:31:54;;;;;;;8.60;5.50;;;22.30;60.20;;;;;;4961672;28;20950;-84
2023/06/24 08:34:23;;;;;;;8.60;4.57;;;22.40;60.00;;;;;;4950161;28;20636;-84
2023/06/24 08:36:50;;;;;;;8.60;4.65;;;22.50;59.70;;;;;;4947461;28;20540;-85
2023/06/24 08:39:17;;;;;;;8.85;4.63;;;22.50;59.00;;;;;;4947492;28;20048;-84
2023/06/24 08:41:44;;;;;;;8.98;4.53;;;22.60;58.10;;;;;;4947450;28;20932;-84
2023/06/24 08:44:11;;;;;;;10.77;4.73;;;22.60;57.50;;;;;;4948809;28;20051;-83
2023/06/24 08:46:38;;;;;;;6.32;3.53;;;22.70;57.90;;;;;;4958742;28;21037;-85
2023/06/24 08:49:15;;;;;;;5.40;2.95;;;22.80;57.10;;;;;;4928735;28;20059;-84
2023/06/24 08:51:47;;;;;;;5.88;3.20;;;22.80;54.90;;;;;;4948622;28;20055;-83
2023/06/24 08:54:16;;;;;;;6.00;3.47;;;22.90;55.20;;;;;;4980407;28;20166;-85
2023/06/24 08:56:43;;;;;;;5.60;3.50;;;23.00;55.90;;;;;;4960206;28;20056;-83
2023/06/24 08:59:10;;;;;;;7.13;3.42;;;23.00;54.50;;;;;;4955633;28;20310;-85
2023/06/24 09:01:37;;;;;;;5.97;3.33;;;23.10;55.10;;;;;;4937630;28;20182;-85
2023/06/24 09:04:05;;;;;;;5.65;3.25;;;23.20;54.20;;;;;;4946796;28;20063;-83
2023/06/24 09:06:32;;;;;;;6.10;2.80;;;23.20;54.10;;;;;;4942724;28;20060;-86
2023/06/24 09:09:00;;;;;;;7.13;2.73;;;23.20;54.10;;;;;;4945719;28;20056;-86
2023/06/24 09:11:28;;;;;;;6.72;3.70;;;23.30;54.30;;;;;;4961641;28;20742;-86
2023/06/24 09:13:56;;;;;;;6.68;3.70;;;23.30;54.70;;;;;;4978513;28;20066;-86
2023/06/24 09:16:24;;;;;;;8.07;4.13;;;23.30;54.00;;;;;;4947092;28;20481;-86
2023/06/24 09:18:51;;;;;;;7.68;3.40;;;23.30;54.30;;;;;;4937174;28;20060;-85
2023/06/24 09:21:26;;;;;;;5.97;3.30;;;23.40;54.20;;;;;;4949166;28;20106;-85
2023/06/24 09:23:57;;;;;;;7.95;3.58;;;23.40;54.90;;;;;;4948528;28;21022;-84
2023/06/24 09:26:26;;;;;;;5.57;3.47;;;23.40;55.10;;;;;;4980080;28;20059;-86
2023/06/24 09:28:54;;;;;;;6.07;3.67;;;23.50;54.80;;;;;;4949369;28;20469;-87
2023/06/24 09:31:23;;;;;;;7.68;3.58;;;23.50;54.30;;;;;;4930246;28;20059;-87
2023/06/24 09:33:50;;;;;;;5.27;3.20;;;23.50;53.30;;;;;;4927938;28;20147;-86
2023/06/24 09:36:17;;;;;;;7.85;3.08;;;23.60;53.60;;;;;;4931548;28;20288;-87
2023/06/24 09:38:45;;;;;;;6.22;2.92;;;23.60;54.50;;;;;;4932856;28;20056;-82
2023/06/24 09:41:14;;;;;;;7.18;3.30;;;23.60;54.80;;;;;;4960788;28;20051;-84
2023/06/24 09:43:44;;;;;;;7.57;3.10;;;23.60;54.90;;;;;;4948625;28;20056;-83
2023/06/24 09:46:12;;;;;;;4.97;2.80;;;23.60;54.80;;;;;;4932099;28;20467;-84
2023/06/24 09:48:39;;;;;;;5.32;2.80;;;23.70;54.00;;;;;;4928797;28;20270;-84
2023/06/24 09:51:06;;;;;;;5.93;3.22;;;23.80;53.90;;;;;;4949936;28;20074;-86
2023/06/24 09:53:34;;;;;;;6.65;3.30;;;23.80;53.40;;;;;;4950779;28;20540;-87
2023/06/24 09:56:04;;;;;;;5.10;2.85;;;23.90;52.70;;;;;;4923816;28;20044;-86
2023/06/24 09:58:34;;;;;;;6.67;3.20;;;23.90;53.10;;;;;;4943136;28;20091;-84
2023/06/24 10:01:04;;;;;;;5.32;2.90;;;23.90;53.30;;;;;;4947465;28;20264;-84
2023/06/24 10:03:34;;;;;;;5.10;2.97;;;24.00;53.00;;;;;;4948443;28;20060;-84
2023/06/24 10:06:02;;;;;;;6.32;3.50;;;24.00;53.40;;;;;;4956821;28;20139;-84
2023/06/24 10:08:30;;;;;;;6.78;3.50;;;24.00;53.50;;;;;;4946222;28;20052;-86
2023/06/24 10:10:59;;;;;;;9.00;3.97;;;24.10;53.30;;;;;;4945410;28;20064;-87
2023/06/24 10:13:27;;;;;;;5.05;3.00;;;24.10;53.40;;;;;;4933209;28;20778;-87
2023/06/24 10:15:55;;;;;;;7.38;3.65;;;24.20;53.90;;;;;;4964084;28;20625;-87
2023/06/24 10:18:37;;;;;;;6.15;3.50;;;24.20;54.10;;;;;;4945965;28;20142;-80
2023/06/24 10:21:05;;;;;;;6.15;3.50;;;24.20;54.10;;;;;;4931889;28;20058;-80
2023/06/24 10:23:34;;;;;;;7.13;3.60;;;24.30;54.10;;;;;;4947420;28;20075;-80
2023/06/24 10:26:01;;;;;;;5.93;3.08;;;24.40;54.00;;;;;;4951108;28;20303;-81
2023/06/24 10:29:07;;;;;;;5.80;3.28;;;24.40;53.50;;;;;;4949634;28;20055;-83
2023/06/24 10:31:52;;;;;;;6.57;3.83;;;24.40;53.20;;;;;;4948919;28;20507;-82
2023/06/24 10:34:27;;;;;;;7.55;3.60;;;24.50;52.80;;;;;;4956168;28;20134;-78
2023/06/24 10:36:55;;;;;;;6.30;3.60;;;24.60;52.30;;;;;;4946591;28;20054;-77
2023/06/24 10:39:40;;;;;;;5.75;3.13;;;24.60;52.60;;;;;;4949542;28;20271;-80
2023/06/24 10:42:30;;;;;;;6.88;3.60;;;24.60;53.20;;;;;;4952542;28;20061;-81
2023/06/24 10:45:00;;;;;;;6.60;3.83;;;24.60;53.00;;;;;;4946304;28;20047;-81
2023/06/24 10:47:29;;;;;;;7.00;3.70;;;24.70;52.40;;;;;;4951545;28;21098;-81
2023/06/24 10:49:57;;;;;;;5.43;3.43;;;24.70;52.70;;;;;;4942463;28;20052;-82
2023/06/24 10:52:25;;;;;;;6.90;4.07;;;24.70;52.80;;;;;;4947568;28;20264;-81
2023/06/24 10:54:53;;;;;;;7.03;3.92;;;24.70;52.30;;;;;;4944869;28;20576;-81
2023/06/24 10:57:24;;;;;;;6.82;3.63;;;24.80;52.30;;;;;;4946273;28;20059;-80
2023/06/24 10:59:53;;;;;;;6.97;3.85;;;24.80;52.70;;;;;;4950437;28;20138;-79
2023/06/24 11:02:21;;;;;;;7.20;3.97;;;24.80;51.80;;;;;;4950796;28;20066;-79
2023/06/24 11:04:50;;;;;;;5.95;3.80;;;24.90;51.60;;;;;;4944755;28;20304;-78
2023/06/24 11:07:21;;;;;;;5.82;3.60;;;24.90;51.70;;;;;;4931540;29;20063;-79
2023/06/24 11:09:52;;;;;;;6.70;3.83;;;24.90;52.00;;;;;;4945081;28;20056;-79
2023/06/24 11:12:19;;;;;;;7.30;3.85;;;25.00;52.20;;;;;;4947340;28;20156;-79
2023/06/24 11:14:46;;;;;;;7.40;4.00;;;25.00;52.10;;;;;;4945478;28;20052;-79
2023/06/24 11:17:13;;;;;;;6.30;3.65;;;25.00;52.10;;;;;;4949304;28;20663;-78
2023/06/24 11:19:40;;;;;;;6.70;4.00;;;25.00;52.10;;;;;;4947360;28;20454;-78
2023/06/24 11:22:08;;;;;;;5.53;3.58;;;25.00;52.30;;;;;;4948184;28;20063;-78
2023/06/24 11:24:39;;;;;;;6.28;3.70;;;25.10;52.50;;;;;;4953335;28;20059;-77
2023/06/24 11:27:06;;;;;;;5.47;3.07;;;25.20;52.60;;;;;;4947692;28;20573;-77
2023/06/24 11:29:35;;;;;;;5.97;3.55;;;25.20;52.10;;;;;;4953661;28;20281;-77
2023/06/24 11:32:02;;;;;;;6.68;3.30;;;25.30;52.30;;;;;;4934271;28;20058;-77
2023/06/24 11:34:29;;;;;;;9.50;3.97;;;25.40;51.80;;;;;;4943065;28;20087;-77
2023/06/24 11:36:56;;;;;;;5.93;3.58;;;25.40;51.40;;;;;;4977154;28;20062;-77
2023/06/24 11:39:24;;;;;;;6.10;3.27;;;25.50;51.40;;;;;;4947153;28;20154;-77
2023/06/24 11:41:53;;;;;;;5.55;3.40;;;25.50;51.20;;;;;;4980645;28;20264;-77
2023/06/24 11:44:21;;;;;;;5.93;2.97;;;25.60;50.90;;;;;;4979408;28;20574;-77
2023/06/24 11:46:48;;;;;;;6.00;3.78;;;25.60;50.00;;;;;;4946594;28;20139;-77
2023/06/24 11:49:15;;;;;;;5.82;3.72;;;25.70;50.60;;;;;;4947502;28;20608;-77
2023/06/24 11:51:52;;;;;;;4.97;2.77;;;25.80;50.60;;;;;;4948776;28;20161;-77
2023/06/24 11:54:21;;;;;;;6.05;3.50;;;25.80;50.60;;;;;;4947390;28;20275;-77
2023/06/24 11:56:52;;;;;;;5.25;3.03;;;25.80;49.50;;;;;;4946630;28;20090;-77
2023/06/24 11:59:21;;;;;;;6.07;3.30;;;25.80;49.30;;;;;;4964621;28;20441;-77
2023/06/24 12:01:55;;;;;;;6.07;3.35;;;25.90;49.20;;;;;;4948457;28;20702;-77
2023/06/24 12:04:22;;;;;;;5.53;3.73;;;26.00;49.60;;;;;;4945298;28;20048;-77
2023/06/24 12:06:49;;;;;;;6.03;3.60;;;26.00;50.00;;;;;;4947332;28;20336;-77
2023/06/24 12:09:17;;;;;;;6.57;3.70;;;26.00;50.00;;;;;;4948677;28;20179;-77
2023/06/24 12:11:44;;;;;;;6.05;3.60;;;26.00;50.00;;;;;;4947739;28;20054;-77
2023/06/24 12:14:12;;;;;;;8.25;4.00;;;26.10;49.50;;;;;;4948381;28;20058;-77
2023/06/24 12:16:40;;;;;;;8.33;3.47;;;26.20;49.40;;;;;;4948195;28;20139;-77
2023/06/24 12:19:07;;;;;;;6.03;3.85;;;26.20;49.00;;;;;;4948139;28;20286;-77
2023/06/24 12:21:34;;;;;;;6.32;3.47;;;26.20;48.60;;;;;;4947555;28;20354;-77
2023/06/24 12:24:01;;;;;;;6.88;3.60;;;26.10;48.70;;;;;;4947650;28;20166;-77
2023/06/24 12:26:28;;;;;;;5.28;3.28;;;26.10;48.50;;;;;;4948106;28;20166;-77
2023/06/24 12:28:56;;;;;;;5.63;3.20;;;26.20;48.80;;;;;;4931912;28;20056;-77
2023/06/24 12:31:25;;;;;;;5.80;3.97;;;26.20;48.80;;;;;;4949041;28;20339;-77
2023/06/24 12:33:52;;;;;;;6.07;3.30;;;26.20;49.20;;;;;;4948154;28;20070;-77
2023/06/24 12:36:20;;;;;;;7.28;3.53;;;26.10;49.70;;;;;;4949835;28;20476;-77
2023/06/24 12:38:46;;;;;;;5.38;3.47;;;26.20;50.00;;;;;;4949509;28;20051;-77
2023/06/24 12:41:13;;;;;;;6.30;3.87;;;26.20;50.70;;;;;;4946731;28;20056;-77
2023/06/24 12:43:41;;;;;;;7.25;3.90;;;26.30;51.70;;;;;;4949420;28;20260;-77
2023/06/24 12:46:08;;;;;;;5.80;3.67;;;26.40;50.70;;;;;;4947964;28;20051;-77
2023/06/24 12:48:36;;;;;;;6.75;3.90;;;26.40;49.90;;;;;;4947690;28;20107;-77